Daglege Rapportar

Klikk her for oppdatering!


Detaljar i dag

22/1/20
Time         Wind Dir   Wind Spd  Wind Gust   Humidity       Temp  Raw Barom   Tot Rain Temp Out H Temp Out L  DailyRain   HourRain
                            mps        mps          %         C         mb         mm         C         C         mm         mm
0:00              333          1          7         84        4.4    1026.73     184.80        4.4        4.4       0.00       1.80
1:00              321          3          8         78        4.8    1027.00     186.00        5.0        4.3       1.20       1.80
2:00              355          1          8         82        4.5    1027.51     187.00        5.0        4.3       2.20       1.60
3:00              348          2          6         81        4.4    1027.95     187.20        5.0        4.2       2.40       0.60
4:00              355          2          7         71        5.1    1028.15     187.20        5.2        4.2       2.40       0.00
5:00              349          4          9         73        4.9    1028.59     187.20        5.2        4.2       2.40       0.00
6:00              314          1          8         83        3.5    1029.78     187.40        5.2        3.5       2.60       0.20
7:00              273          0          3         78        3.9    1030.42     187.40        5.2        3.4       2.60       0.20
8:00               53          1          4         80        3.7    1031.26     187.40        5.2        3.4       2.60       0.00
9:00              329          5          6         69        4.1    1031.97     187.40        5.2        3.4       2.60       0.00
10:00             360          4          6         69        3.9    1032.55     187.40        5.2        3.4       2.60       0.00
11:00              17          2          4         69        3.4    1033.05     187.40        5.2        3.3       2.60       0.00
12:00             355          1          4         60        5.6    1033.46     187.40        5.6        3.3       2.60       0.00
13:00             355          1          4         61        6.1    1033.70     187.40        6.2        3.3       2.60       0.00
14:00             310          4          4         64        5.3    1034.10     187.40        6.3        3.3       2.60       0.00
15:00              19          1          5         66        5.7    1034.10     187.40        6.3        3.3       2.60       0.00
16:00             334          0          5         67        4.5    1034.17     187.40        6.3        3.3       2.60       0.00

 


Detaljar i gr

21/1/20
Time         Wind Dir   Wind Spd  Wind Gust   Humidity       Temp  Raw Barom   Tot Rain Temp Out H Temp Out L  DailyRain   HourRain
                            mps        mps          %         C         mb         mm         C         C         mm         mm
0:00              355          2          9         88        8.5    1024.74     161.00        8.5        8.5       0.00       1.20
1:00              294          3          9         90        8.4    1023.66     161.80        8.6        8.3       0.80       1.60
2:00              327          4          7         91        8.2    1023.29     163.40        8.6        8.2       2.40       2.20
3:00              300          4          6         90        8.1    1022.88     165.60        8.6        8.1       4.60       3.20
4:00              323          7         10         87        7.7    1023.05     168.60        8.6        7.7       7.60       4.20
5:00              355          2          7         84        7.1    1024.23     171.80        8.6        7.1      10.80       4.80
6:00              343          1          4         84        6.6    1025.62     174.60        8.6        6.4      13.60       4.20
7:00              313          1          9         73        6.7    1026.46     176.20        8.6        6.4      15.20       2.80
8:00               19          6          9         80        5.8    1027.55     176.60        8.6        5.8      15.60       1.20
9:00               19          4         11         73        5.5    1027.51     176.60        8.6        5.4      15.60       0.00
10:00             355          6          9         74        5.4    1028.96     176.60        8.6        5.3      15.60       0.00
11:00             355          1          6         77        5.1    1029.30     176.60        8.6        5.1      15.60       0.00
12:00             299          4          8         72        5.7    1029.71     176.60        8.6        4.9      15.60       0.00
13:00             342          4          7         72        5.8    1029.84     176.60        8.6        4.9      15.60       0.00
14:00             337          7          8         79        5.1    1030.38     176.60        8.6        4.8      15.60       0.00
15:00             329          4          8         82        4.8    1030.08     176.80        8.6        4.8      15.80       0.20
16:00             343          4          6         83        4.3    1029.54     177.60        8.6        3.8      16.60       1.00
17:00             309          4          8         83        4.6    1028.05     178.40        8.6        3.8      17.40       1.20
18:00              38          2          8         81        5.1    1027.48     178.40        8.6        3.8      17.40       0.20
19:00              12          4         10         86        4.1    1026.94     178.80        8.6        3.8      17.80       0.40
20:00             360          2          7         86        3.9    1026.50     180.00        8.6        3.8      19.00       1.60
21:00             329          4          7         87        3.9    1026.53     181.20        8.6        3.8      20.20       1.80
22:00             304          3          7         85        4.4    1026.73     182.60        8.6        3.8      21.60       2.00